createdAt,value
2017-01-10T00:00:13.389Z,39.39
2017-01-10T00:01:13.022Z,39.39
2017-01-10T00:02:13.050Z,39.59
2017-01-10T00:03:13.075Z,39.49
2017-01-10T00:04:13.500Z,39.39
2017-01-10T00:05:13.525Z,39.78
2017-01-10T00:06:13.544Z,39.78
2017-01-10T00:07:13.581Z,39.97
2017-01-10T00:08:13.606Z,40.07
2017-01-10T00:09:13.235Z,40.07
2017-01-10T00:10:13.264Z,40.74
2017-01-10T00:11:13.684Z,40.74
2017-01-10T00:12:13.313Z,40.55
2017-01-10T00:13:13.742Z,40.55
2017-01-10T00:14:13.757Z,40.94
2017-01-10T00:15:13.795Z,40.84
2017-01-10T00:16:13.415Z,40.94
2017-01-10T00:17:13.847Z,41.03
2017-01-10T00:18:13.868Z,40.84
2017-01-10T00:19:13.901Z,40.64
2017-01-10T00:20:13.534Z,40.64
2017-01-10T00:21:13.950Z,40.84
2017-01-10T00:22:13.978Z,40.74
2017-01-10T00:23:13.603Z,40.74
2017-01-10T00:24:13.636Z,40.94
2017-01-10T00:25:14.057Z,40.74
2017-01-10T00:26:13.689Z,41.03
2017-01-10T00:27:14.105Z,41.03
2017-01-10T00:28:13.746Z,40.64
2017-01-10T00:29:13.771Z,40.64
2017-01-10T00:30:14.188Z,40.64
2017-01-10T00:31:14.224Z,40.64
2017-01-10T00:32:13.853Z,40.84
2017-01-10T00:33:14.278Z,40.55
2017-01-10T00:34:14.301Z,40.84
2017-01-10T00:35:13.959Z,40.94
2017-01-10T00:36:14.356Z,41.13
2017-01-10T00:37:13.988Z,40.94
2017-01-10T00:38:14.041Z,40.55
2017-01-10T00:39:14.438Z,40.64
2017-01-10T00:40:14.463Z,40.55
2017-01-10T00:41:14.491Z,40.84
2017-01-10T00:42:14.524Z,41.22
2017-01-10T00:43:14.541Z,40.64
2017-01-10T00:44:14.177Z,40.36
2017-01-10T00:45:14.598Z,40.36
2017-01-10T00:46:14.628Z,40.55
2017-01-10T00:47:14.255Z,40.74
2017-01-10T00:48:14.676Z,40.64
2017-01-10T00:49:14.304Z,40.55
2017-01-10T00:50:14.337Z,40.55
2017-01-10T00:51:14.362Z,40.64
2017-01-10T00:52:14.786Z,40.45
2017-01-10T00:53:14.807Z,40.55
2017-01-10T00:54:14.443Z,40.45
2017-01-10T00:55:14.865Z,40.55
2017-01-10T00:56:14.497Z,40.45
2017-01-10T00:57:14.918Z,40.16
2017-01-10T00:58:14.946Z,40.16
2017-01-10T00:59:14.971Z,40.16
2017-01-10T01:00:14.604Z,40.16
2017-01-10T01:01:15.027Z,40.36
2017-01-10T01:02:15.050Z,40.16
2017-01-10T01:03:15.082Z,40.16
2017-01-10T01:04:15.103Z,40.07
2017-01-10T01:05:14.740Z,39.97
2017-01-10T01:06:14.764Z,39.97
2017-01-10T01:07:14.793Z,40.07
2017-01-10T01:08:15.214Z,40.07
2017-01-10T01:09:14.851Z,39.97
2017-01-10T01:10:14.870Z,39.78
2017-01-10T01:11:15.293Z,39.78
2017-01-10T01:12:15.321Z,40.16
2017-01-10T01:13:15.347Z,40.16
2017-01-10T01:14:14.982Z,40.16
2017-01-10T01:15:15.003Z,39.78
2017-01-10T01:16:15.428Z,40.07
2017-01-10T01:17:15.456Z,39.49
2017-01-10T01:18:15.486Z,39.59
2017-01-10T01:19:15.118Z,39.68
2017-01-10T01:20:15.539Z,39.68
2017-01-10T01:21:15.568Z,39.59
2017-01-10T01:22:15.593Z,39.78
2017-01-10T01:23:15.621Z,39.78
2017-01-10T01:24:15.649Z,39.59
2017-01-10T01:25:15.666Z,39.97
2017-01-10T01:26:15.303Z,39.87
2017-01-10T01:27:15.329Z,39.87
2017-01-10T01:28:15.360Z,39.87
2017-01-10T01:29:15.388Z,40.07
2017-01-10T01:30:15.414Z,39.87
2017-01-10T01:31:15.832Z,39.87
2017-01-10T01:32:15.859Z,39.78
2017-01-10T01:33:15.496Z,39.97
2017-01-10T01:34:15.521Z,39.97
2017-01-10T01:35:15.541Z,40.07
2017-01-10T01:36:15.966Z,39.59
2017-01-10T01:37:15.991Z,39.68
2017-01-10T01:38:16.020Z,39.49
2017-01-10T01:39:16.048Z,39.29
2017-01-10T01:40:15.678Z,39.49
2017-01-10T01:41:16.106Z,39.49
2017-01-10T01:42:15.726Z,39.11
2017-01-10T01:43:16.159Z,39.29
2017-01-10T01:44:15.788Z,39.49
2017-01-10T01:45:16.209Z,39.49
2017-01-10T01:46:15.841Z,39.29
2017-01-10T01:47:15.865Z,39.59
2017-01-10T01:48:15.891Z,39.2
2017-01-10T01:49:16.315Z,39.11
2017-01-10T01:50:16.349Z,39.29
2017-01-10T01:51:16.372Z,39.59
2017-01-10T01:52:16.397Z,39.29
2017-01-10T01:53:16.418Z,39.39
2017-01-10T01:54:16.454Z,39.29
2017-01-10T01:55:16.083Z,39.49
2017-01-10T01:56:16.112Z,39.29
2017-01-10T01:57:16.134Z,39.39
2017-01-10T01:58:16.562Z,39.2
2017-01-10T01:59:16.590Z,39.49
2017-01-10T02:00:16.619Z,39.29
2017-01-10T02:01:16.640Z,39.29
2017-01-10T02:02:16.668Z,39.59
2017-01-10T02:03:16.689Z,39.39
2017-01-10T02:04:16.323Z,39.29
2017-01-10T02:05:16.355Z,39.49
2017-01-10T02:06:16.772Z,39.11
2017-01-10T02:07:16.802Z,39.11
2017-01-10T02:08:16.433Z,39.39
2017-01-10T02:09:16.462Z,39.49
2017-01-10T02:10:16.878Z,39.11
2017-01-10T02:11:16.515Z,38.91
2017-01-10T02:12:16.540Z,38.91
2017-01-10T02:13:16.960Z,38.81
2017-01-10T02:14:16.981Z,39.2
2017-01-10T02:15:17.021Z,38.91
2017-01-10T02:16:16.647Z,38.91
2017-01-10T02:17:17.072Z,38.91
2017-01-10T02:18:16.696Z,39.11
2017-01-10T02:19:17.121Z,39.11
2017-01-10T02:20:16.753Z,38.91
2017-01-10T02:21:16.787Z,39.11
2017-01-10T02:22:16.807Z,38.72
2017-01-10T02:23:17.227Z,38.72
2017-01-10T02:24:16.862Z,38.72
2017-01-10T02:25:17.286Z,38.62
2017-01-10T02:26:16.915Z,38.62
2017-01-10T02:27:17.339Z,38.91
2017-01-10T02:28:17.364Z,38.81
2017-01-10T02:29:17.393Z,38.62
2017-01-10T02:30:17.418Z,38.91
2017-01-10T02:31:17.446Z,38.81
2017-01-10T02:32:17.475Z,39.01
2017-01-10T02:33:17.500Z,39.11
2017-01-10T02:34:17.125Z,39.01
2017-01-10T02:35:17.162Z,38.91
2017-01-10T02:36:17.583Z,38.91
2017-01-10T02:37:17.611Z,38.72
2017-01-10T02:38:17.636Z,38.62
2017-01-10T02:39:17.657Z,38.91
2017-01-10T02:40:17.297Z,38.91
2017-01-10T02:41:17.322Z,38.72
2017-01-10T02:42:17.347Z,38.72
2017-01-10T02:43:17.372Z,38.53
2017-01-10T02:44:17.405Z,38.62
2017-01-10T02:45:17.420Z,38.53
2017-01-10T02:46:17.850Z,38.62
2017-01-10T02:47:17.879Z,38.53
2017-01-10T02:48:17.907Z,39.01
2017-01-10T02:49:17.920Z,38.72
2017-01-10T02:50:17.563Z,38.43
2017-01-10T02:51:17.985Z,38.43
2017-01-10T02:52:18.010Z,38.43
2017-01-10T02:53:17.643Z,38.43
2017-01-10T02:54:17.671Z,38.91
2017-01-10T02:55:17.692Z,38.62
2017-01-10T02:56:18.117Z,38.81
2017-01-10T02:57:18.145Z,38.81
2017-01-10T02:58:17.778Z,38.53
2017-01-10T02:59:18.203Z,38.72
2017-01-10T03:00:18.219Z,38.53
2017-01-10T03:01:18.256Z,38.72
2017-01-10T03:02:17.881Z,38.53
2017-01-10T03:03:17.913Z,38.53
2017-01-10T03:04:18.334Z,38.53
2017-01-10T03:05:17.967Z,38.43
2017-01-10T03:06:17.992Z,38.72
2017-01-10T03:07:18.468Z,38.43
2017-01-10T03:08:18.041Z,39.11
2017-01-10T03:09:18.465Z,38.72
2017-01-10T03:10:18.095Z,38.53
2017-01-10T03:11:18.521Z,38.62
2017-01-10T03:12:18.156Z,38.72
2017-01-10T03:13:18.581Z,38.91
2017-01-10T03:14:18.602Z,38.53
2017-01-10T03:15:18.635Z,38.43
2017-01-10T03:16:18.659Z,39.11
2017-01-10T03:17:18.683Z,39.11
2017-01-10T03:18:18.316Z,38.62
2017-01-10T03:19:18.337Z,39.01
2017-01-10T03:20:18.362Z,38.91
2017-01-10T03:21:18.395Z,38.91
2017-01-10T03:22:18.812Z,38.72
2017-01-10T03:23:18.840Z,39.29
2017-01-10T03:24:18.869Z,38.72
2017-01-10T03:25:18.897Z,38.91
2017-01-10T03:26:18.526Z,39.39
2017-01-10T03:27:18.555Z,39.11
2017-01-10T03:28:18.980Z,38.53
2017-01-10T03:29:18.613Z,38.72
2017-01-10T03:30:19.030Z,38.53
2017-01-10T03:31:18.667Z,38.53
2017-01-10T03:32:18.695Z,38.33
2017-01-10T03:33:18.716Z,38.33
2017-01-10T03:34:19.141Z,38.72
2017-01-10T03:35:19.169Z,38.62
2017-01-10T03:36:18.794Z,38.91
2017-01-10T03:37:18.826Z,38.81
2017-01-10T03:38:19.244Z,38.91
2017-01-10T03:39:18.880Z,38.81
2017-01-10T03:40:19.304Z,38.81
2017-01-10T03:41:19.325Z,38.81
2017-01-10T03:42:18.959Z,38.81
2017-01-10T03:43:19.388Z,38.72
2017-01-10T03:44:19.409Z,38.81
2017-01-10T03:45:19.037Z,38.81
2017-01-10T03:46:19.461Z,38.62
2017-01-10T03:47:19.094Z,38.72
2017-01-10T03:48:19.123Z,38.91
2017-01-10T03:49:19.544Z,38.91
2017-01-10T03:50:19.568Z,38.91
2017-01-10T03:51:19.598Z,38.81
2017-01-10T03:52:19.230Z,38.91
2017-01-10T03:53:19.255Z,38.91
2017-01-10T03:54:19.680Z,38.81
2017-01-10T03:55:19.308Z,38.81
2017-01-10T03:56:19.341Z,38.81
2017-01-10T03:57:19.762Z,38.91
2017-01-10T03:58:19.786Z,38.72
2017-01-10T03:59:19.811Z,38.72
2017-01-10T04:00:19.440Z,38.72
2017-01-10T04:01:19.477Z,38.33
2017-01-10T04:02:19.885Z,38.62
2017-01-10T04:03:19.917Z,38.62
2017-01-10T04:04:19.549Z,38.81
2017-01-10T04:05:19.579Z,38.62
2017-01-10T04:06:20.000Z,38.62
2017-01-10T04:07:20.033Z,38.91
2017-01-10T04:08:19.653Z,39.01
2017-01-10T04:09:20.078Z,38.91
2017-01-10T04:10:20.102Z,38.91
2017-01-10T04:11:19.735Z,39.01
2017-01-10T04:12:20.155Z,39.01
2017-01-10T04:13:20.184Z,39.01
2017-01-10T04:14:19.817Z,39.01
2017-01-10T04:15:20.241Z,38.81
2017-01-10T04:16:20.271Z,38.91
2017-01-10T04:17:19.895Z,38.72
2017-01-10T04:18:20.324Z,39.01
2017-01-10T04:19:19.949Z,38.81
2017-01-10T04:20:20.377Z,39.01
2017-01-10T04:21:20.006Z,38.91
2017-01-10T04:22:20.426Z,38.81
2017-01-10T04:23:20.460Z,38.72
2017-01-10T04:24:20.477Z,38.53
2017-01-10T04:25:20.500Z,38.04
2017-01-10T04:26:20.145Z,38.62
2017-01-10T04:27:20.164Z,38.43
2017-01-10T04:28:20.590Z,38.43
2017-01-10T04:29:20.219Z,38.24
2017-01-10T04:30:20.652Z,38.43
2017-01-10T04:31:20.268Z,38.43
2017-01-10T04:32:20.301Z,38.43
2017-01-10T04:33:20.730Z,38.43
2017-01-10T04:34:20.354Z,38.33
2017-01-10T04:35:20.771Z,38.43
2017-01-10T04:36:20.801Z,38.33
2017-01-10T04:37:20.831Z,38.43
2017-01-10T04:38:20.852Z,38.33
2017-01-10T04:39:20.887Z,38.43
2017-01-10T04:40:20.515Z,38.24
2017-01-10T04:41:20.540Z,38.24
2017-01-10T04:42:20.965Z,38.43
2017-01-10T04:43:20.998Z,38.43
2017-01-10T04:44:21.022Z,38.43
2017-01-10T04:45:21.043Z,38.24
2017-01-10T04:46:21.076Z,38.24
2017-01-10T04:47:20.701Z,38.43
2017-01-10T04:48:21.128Z,38.33
2017-01-10T04:49:20.757Z,38.53
2017-01-10T04:50:20.787Z,38.43
2017-01-10T04:51:21.205Z,38.33
2017-01-10T04:52:21.237Z,38.43
2017-01-10T04:53:20.865Z,38.33
2017-01-10T04:54:20.895Z,38.14
2017-01-10T04:55:21.307Z,38.33
2017-01-10T04:56:20.948Z,38.33
2017-01-10T04:57:20.971Z,38.43
2017-01-10T04:58:20.998Z,37.85
2017-01-10T04:59:21.419Z,38.43
2017-01-10T05:00:21.452Z,38.24
2017-01-10T05:01:21.481Z,38.04
2017-01-10T05:02:21.109Z,37.85
2017-01-10T05:03:21.529Z,37.95
2017-01-10T05:04:21.162Z,37.95
2017-01-10T05:05:21.187Z,37.85
2017-01-10T05:06:21.212Z,37.95
2017-01-10T05:07:21.636Z,38.04
2017-01-10T05:08:21.666Z,38.04
2017-01-10T05:09:21.295Z,38.24
2017-01-10T05:10:21.327Z,38.43
2017-01-10T05:11:21.748Z,38.22
2017-01-10T05:12:21.377Z,38.04
2017-01-10T05:13:21.789Z,38.33
2017-01-10T05:14:21.819Z,37.85
2017-01-10T05:15:21.463Z,37.95
2017-01-10T05:16:21.872Z,38.04
2017-01-10T05:17:21.510Z,37.95
2017-01-10T05:18:21.542Z,38.04
2017-01-10T05:19:21.959Z,38.14
2017-01-10T05:20:21.991Z,37.95
2017-01-10T05:21:22.016Z,38.14
2017-01-10T05:22:21.636Z,38.43
2017-01-10T05:23:21.673Z,38.33
2017-01-10T05:24:22.099Z,37.85
2017-01-10T05:25:21.723Z,38.24
2017-01-10T05:26:21.776Z,38.04
2017-01-10T05:27:22.185Z,37.66
2017-01-10T05:28:22.197Z,38.04
2017-01-10T05:29:21.831Z,38.14
2017-01-10T05:30:21.859Z,38.24
2017-01-10T05:31:21.892Z,38.14
2017-01-10T05:32:22.316Z,37.85
2017-01-10T05:33:22.337Z,37.95
2017-01-10T05:34:21.966Z,38.04
2017-01-10T05:35:21.995Z,37.85
2017-01-10T05:36:22.020Z,37.66
2017-01-10T05:37:22.449Z,38.14
2017-01-10T05:38:37.026Z,37.85
2017-01-10T05:44:49.686Z,38.04
2017-01-10T05:45:49.319Z,37.95
2017-01-10T05:47:04.444Z,38.04
2017-01-10T05:49:15.320Z,38.04
2017-01-10T05:50:15.351Z,38.04
2017-01-10T05:51:15.768Z,38.04
2017-01-10T05:52:15.407Z,38.04
2017-01-10T05:53:16.041Z,38.04
2017-01-10T05:54:15.858Z,38.14
2017-01-10T05:55:15.881Z,38.04
2017-01-10T05:56:15.936Z,38.04
2017-01-10T05:57:15.540Z,37.95
2017-01-10T05:58:15.561Z,37.85
2017-01-10T05:59:15.602Z,38.04
2017-01-10T06:00:15.622Z,38.14
2017-01-10T06:01:16.035Z,37.95
2017-01-10T06:02:16.067Z,38.04
2017-01-10T06:03:16.093Z,38.14
2017-01-10T06:04:16.124Z,38.04
2017-01-10T06:05:16.150Z,37.95
2017-01-10T06:06:15.777Z,37.95
2017-01-10T06:07:16.196Z,37.85
2017-01-10T06:08:16.233Z,37.85
2017-01-10T06:09:15.861Z,37.85
2017-01-10T06:10:15.919Z,38.04
2017-01-10T06:11:16.319Z,38.14
2017-01-10T06:12:16.336Z,38.04
2017-01-10T06:13:16.676Z,37.85
2017-01-10T06:14:16.389Z,37.95
2017-01-10T06:15:16.414Z,38.14
2017-01-10T06:16:16.450Z,37.85
2017-01-10T06:17:16.466Z,37.95
2017-01-10T06:18:16.500Z,37.76
2017-01-10T06:19:16.125Z,37.76
2017-01-10T06:20:16.158Z,37.95
2017-01-10T06:21:16.184Z,37.76
2017-01-10T06:22:16.604Z,37.85
2017-01-10T06:23:16.632Z,37.66
2017-01-10T06:24:16.661Z,38.04
2017-01-10T06:25:16.695Z,37.76
2017-01-10T06:26:16.314Z,37.66
2017-01-10T06:27:16.347Z,37.95
2017-01-10T06:28:16.783Z,37.76
2017-01-10T06:29:16.396Z,38.04
2017-01-10T06:30:16.421Z,37.95
2017-01-10T06:31:16.854Z,37.95
2017-01-10T06:32:16.503Z,38.14
2017-01-10T06:33:16.504Z,38.53
2017-01-10T06:34:16.929Z,38.81
2017-01-10T06:35:16.958Z,38.91
2017-01-10T06:36:16.983Z,38.53
2017-01-10T06:37:16.606Z,38.91
2017-01-10T06:38:17.049Z,38.43
2017-01-10T06:39:16.672Z,38.91
2017-01-10T06:40:17.093Z,39.01
2017-01-10T06:41:16.726Z,38.72
2017-01-10T06:42:17.143Z,38.91
2017-01-10T06:43:16.776Z,39.59
2017-01-10T06:44:17.201Z,39.2
2017-01-10T06:45:16.837Z,39.39
2017-01-10T06:46:17.250Z,39.49
2017-01-10T06:47:17.521Z,39.49
2017-01-10T06:48:17.307Z,39.39
2017-01-10T06:49:17.615Z,39.29
2017-01-10T06:50:31.898Z,39.29
2017-01-10T06:51:31.885Z,39.49
2017-01-10T06:52:17.423Z,39.59
2017-01-10T06:53:17.439Z,39.59
2017-01-10T06:54:17.694Z,39.39
2017-01-10T06:55:17.101Z,39.39
2017-01-10T06:56:17.521Z,39.29
2017-01-10T06:57:17.548Z,39.01
2017-01-10T06:58:17.174Z,39.2
2017-01-10T06:59:17.207Z,39.39
2017-01-10T07:00:17.621Z,39.29
2017-01-10T07:01:17.681Z,39.29
2017-01-10T07:02:17.680Z,39.49
2017-01-10T07:03:17.710Z,39.49
2017-01-10T07:04:17.761Z,39.39
2017-01-10T07:05:17.764Z,39.29
2017-01-10T07:06:17.796Z,39.39
2017-01-10T07:07:17.414Z,39.39
2017-01-10T07:08:17.843Z,39.29
2017-01-10T07:09:17.871Z,39.68
2017-01-10T07:10:17.895Z,39.49
2017-01-10T07:11:17.924Z,38.91
2017-01-10T07:12:17.549Z,39.59
2017-01-10T07:13:17.976Z,38.91
2017-01-10T07:14:18.008Z,39.11
2017-01-10T07:15:17.639Z,39.01
2017-01-10T07:16:18.060Z,39.2
2017-01-10T07:17:18.079Z,39.01
2017-01-10T07:18:17.718Z,39.01
2017-01-10T07:19:17.742Z,39.11
2017-01-10T07:20:18.167Z,39.01
2017-01-10T07:21:17.800Z,38.91
2017-01-10T07:22:17.829Z,39.01
2017-01-10T07:23:18.246Z,38.62
2017-01-10T07:24:17.873Z,38.62
2017-01-10T07:25:17.907Z,38.62
2017-01-10T07:26:18.327Z,38.62
2017-01-10T07:27:18.356Z,39.01
2017-01-10T07:28:17.988Z,38.91
2017-01-10T07:29:18.408Z,38.72
2017-01-10T07:30:18.047Z,38.72
2017-01-10T07:31:18.459Z,38.53
2017-01-10T07:32:18.488Z,38.62
2017-01-10T07:33:18.124Z,38.62
2017-01-10T07:34:18.145Z,38.43
2017-01-10T07:35:18.173Z,38.53
2017-01-10T07:36:18.203Z,38.53
2017-01-10T07:37:18.235Z,38.62
2017-01-10T07:38:18.648Z,39.11
2017-01-10T07:39:18.681Z,38.53
2017-01-10T07:40:18.697Z,38.91
2017-01-10T07:41:18.732Z,39.11
2017-01-10T07:42:18.366Z,38.81
2017-01-10T07:43:18.390Z,38.62
2017-01-10T07:44:18.417Z,38.72
2017-01-10T07:45:18.837Z,39.2
2017-01-10T07:46:18.871Z,39.29
2017-01-10T07:47:18.495Z,38.43
2017-01-10T07:48:18.920Z,38.72
2017-01-10T07:49:18.943Z,38.62
2017-01-10T07:50:18.974Z,38.62
2017-01-10T07:51:18.607Z,38.81
2017-01-10T07:52:18.633Z,38.62
2017-01-10T07:53:18.654Z,39.2
2017-01-10T07:54:18.687Z,38.91
2017-01-10T07:55:19.113Z,39.2
2017-01-10T07:56:18.737Z,38.81
2017-01-10T07:57:18.766Z,39.01
2017-01-10T07:58:18.793Z,39.2
2017-01-10T07:59:18.823Z,38.81
2017-01-10T08:00:18.853Z,38.81
2017-01-10T08:01:18.870Z,38.53
2017-01-10T08:02:19.302Z,38.33
2017-01-10T08:03:18.931Z,38.43
2017-01-10T08:04:19.352Z,38.72
2017-01-10T08:05:18.980Z,38.43
2017-01-10T08:06:19.013Z,38.43
2017-01-10T08:07:19.039Z,38.53
2017-01-10T08:08:19.466Z,38.81
2017-01-10T08:09:19.090Z,38.72
2017-01-10T08:10:19.115Z,38.81
2017-01-10T08:11:19.144Z,38.62
2017-01-10T08:12:19.173Z,38.91
2017-01-10T08:13:19.588Z,38.74
2017-01-10T08:14:19.229Z,38.83
2017-01-10T08:15:19.639Z,38.81
2017-01-10T08:16:19.673Z,38.81
2017-01-10T08:17:19.702Z,38.91
2017-01-10T08:18:19.728Z,38.72
2017-01-10T08:19:19.357Z,38.81
2017-01-10T08:20:19.782Z,38.91
2017-01-10T08:21:19.814Z,38.72
2017-01-10T08:22:19.436Z,38.81
2017-01-10T08:23:19.859Z,38.62
2017-01-10T08:24:19.889Z,38.72
2017-01-10T08:26:43.179Z,38.91
2017-01-10T08:27:43.409Z,38.72
2017-01-10T08:28:43.187Z,39.03
2017-01-10T08:29:43.208Z,39.01
2017-01-10T08:30:43.706Z,38.81
2017-01-10T08:32:42.898Z,38.64
2017-01-10T08:33:42.926Z,38.43
2017-01-10T08:34:43.347Z,38.53
2017-01-10T08:35:43.399Z,38.24
2017-01-10T08:36:44.694Z,38.24
2017-01-10T08:38:43.702Z,38.14
2017-01-10T08:39:43.506Z,38.14
2017-01-10T08:40:43.539Z,38.33
2017-01-10T08:41:43.140Z,38.33
2017-01-10T08:42:43.564Z,38.24
2017-01-10T08:43:43.191Z,38.33
2017-01-10T08:44:43.615Z,38.33
2017-01-10T08:45:43.634Z,38.33
2017-01-10T08:46:43.662Z,38.43
2017-01-10T08:47:43.695Z,38.04
2017-01-10T08:48:43.724Z,38.14
2017-01-10T08:49:43.749Z,38.33
2017-01-10T08:50:43.777Z,38.43
2017-01-10T08:51:43.802Z,38.43
2017-01-10T08:52:43.827Z,38.33
2017-01-10T08:53:43.860Z,38.26
2017-01-10T08:54:43.880Z,38.43
2017-01-10T08:55:43.909Z,38.33
2017-01-10T08:56:43.539Z,38.33
2017-01-10T09:01:59.101Z,38.33
2017-01-10T09:03:08.384Z,38.14
2017-01-10T09:03:53.304Z,38.24
2017-01-10T09:04:53.930Z,38.35
2017-01-10T09:05:53.760Z,38.14
2017-01-10T09:06:53.988Z,38.24
2017-01-10T09:07:53.777Z,38.14
2017-01-10T09:08:53.419Z,38.26
2017-01-10T09:09:53.840Z,38.35
2017-01-10T09:10:53.869Z,38.43
2017-01-10T09:11:53.897Z,38.33
2017-01-10T09:12:53.917Z,37.95
2017-01-10T09:13:53.945Z,38.43
2017-01-10T09:14:53.975Z,38.26
2017-01-10T09:15:53.610Z,38.33
2017-01-10T09:16:54.038Z,38.33
2017-01-10T09:17:53.662Z,38.43
2017-01-10T09:18:54.086Z,38.14
2017-01-10T09:19:54.111Z,38.33
2017-01-10T09:20:53.744Z,38.33
2017-01-10T09:21:54.156Z,38.83
2017-01-10T09:22:53.797Z,38.83
2017-01-10T09:23:54.218Z,38.33
2017-01-10T09:24:53.852Z,38.72
2017-01-10T09:25:54.268Z,38.53
2017-01-10T09:26:54.301Z,38.62
2017-01-10T09:27:53.944Z,38.72
2017-01-10T09:28:53.961Z,38.74
2017-01-10T09:29:54.383Z,38.91
2017-01-10T09:30:54.403Z,38.91
2017-01-10T09:31:54.445Z,38.81
2017-01-10T09:32:54.461Z,38.83
2017-01-10T09:33:54.099Z,38.81
2017-01-10T09:34:54.511Z,38.62
2017-01-10T09:35:54.543Z,38.81
2017-01-10T09:36:54.568Z,38.74
2017-01-10T09:37:54.201Z,38.83
2017-01-10T09:38:54.629Z,38.81
2017-01-10T09:39:54.644Z,38.81
2017-01-10T09:40:54.674Z,38.91
2017-01-10T09:41:54.720Z,38.83
2017-01-10T09:42:54.729Z,38.81
2017-01-10T09:43:54.374Z,38.91
2017-01-10T09:44:54.787Z,38.81
2017-01-10T09:45:54.420Z,38.81
2017-01-10T09:46:54.843Z,38.81
2017-01-10T09:47:54.504Z,38.81
2017-01-10T09:48:54.901Z,38.53
2017-01-10T09:49:54.522Z,38.83
2017-01-10T09:50:54.555Z,38.33
2017-01-10T09:51:54.593Z,38.43
2017-01-10T09:52:54.996Z,38.45
2017-01-10T09:53:55.029Z,38.81
2017-01-10T09:54:54.661Z,38.62
2017-01-10T09:56:09.582Z,38.72
2017-01-10T09:57:55.190Z,38.74
2017-01-10T09:58:55.196Z,38.81
2017-01-10T10:00:55.212Z,38.83
2017-01-10T10:01:55.241Z,39.31
2017-01-10T10:02:55.266Z,38.53
2017-01-10T10:03:54.902Z,39.41
2017-01-10T10:04:55.328Z,39.51
2017-01-10T10:05:54.952Z,39.79
2017-01-10T10:06:54.984Z,39.89
2017-01-10T10:07:55.008Z,40.66
2017-01-10T10:08:55.034Z,41.24
2017-01-10T10:09:55.450Z,40.86
2017-01-10T10:10:55.090Z,40.86
2017-01-10T10:11:55.114Z,41.03
2017-01-10T10:12:55.536Z,41.05
2017-01-10T10:13:55.168Z,41.53
2017-01-10T10:14:55.603Z,41.34
2017-01-10T10:15:55.217Z,41.24
2017-01-10T10:16:55.255Z,41.14
2017-01-10T10:17:55.686Z,41.24
2017-01-10T10:18:55.303Z,41.53
2017-01-10T10:19:55.724Z,41.32
2017-01-10T10:20:55.753Z,41.53
2017-01-10T10:21:55.389Z,41.72
2017-01-10T10:22:55.817Z,42.11
2017-01-10T10:23:55.443Z,41.63
2017-01-10T10:24:55.470Z,42.21
2017-01-10T10:25:55.502Z,41.92
2017-01-10T10:26:55.916Z,42.02
2017-01-10T10:27:55.940Z,42.21
2017-01-10T10:28:55.972Z,42.02
2017-01-10T10:29:55.999Z,41.53
2017-01-10T10:30:56.026Z,41.44
2017-01-10T10:31:56.055Z,41.24
2017-01-10T10:32:56.074Z,41.44
2017-01-10T10:33:56.112Z,41.24
2017-01-10T10:34:56.123Z,41.44
2017-01-10T10:35:55.759Z,41.05
2017-01-10T10:36:56.183Z,41.44
2017-01-10T10:37:55.823Z,41.44
2017-01-10T10:38:56.246Z,41.13
2017-01-10T10:39:55.870Z,41.44
2017-01-10T10:40:55.893Z,41.34
2017-01-10T10:41:55.918Z,41.24
2017-01-10T10:42:56.342Z,41.22
2017-01-10T10:43:56.394Z,41.24
2017-01-10T10:44:56.010Z,41.32
2017-01-10T10:45:56.031Z,41.53
2017-01-10T10:46:56.456Z,40.86
2017-01-10T10:47:56.477Z,40.66
2017-01-10T10:48:56.505Z,40.74
2017-01-10T10:49:56.532Z,40.64
2017-01-10T10:50:56.168Z,41.03
2017-01-10T10:51:56.195Z,41.03
2017-01-10T10:52:56.215Z,40.84
2017-01-10T10:53:56.245Z,40.95
2017-01-10T10:54:56.669Z,41.22
2017-01-10T10:55:56.692Z,41.13
2017-01-10T10:56:56.717Z,40.45
2017-01-10T10:57:56.745Z,40.26
2017-01-10T10:58:56.783Z,40.45
2017-01-10T10:59:56.409Z,40.64
2017-01-10T11:00:56.436Z,40.64
2017-01-10T11:01:56.460Z,40.64
2017-01-10T11:02:56.880Z,40.74
2017-01-10T11:03:56.904Z,40.55
2017-01-10T11:04:56.937Z,40.55
2017-01-10T11:05:56.566Z,39.97
2017-01-10T11:06:56.990Z,40.07
2017-01-10T11:07:57.023Z,40.07
2017-01-10T11:08:57.040Z,40.07
2017-01-10T11:09:57.076Z,39.87
2017-01-10T11:10:56.700Z,39.97
2017-01-10T11:11:57.124Z,39.97
2017-01-10T11:12:57.145Z,39.97
2017-01-10T11:13:56.781Z,39.97
2017-01-10T11:14:56.803Z,39.97
2017-01-10T11:15:57.234Z,40.16
2017-01-10T11:16:57.256Z,39.97
2017-01-10T11:17:57.287Z,39.78
2017-01-10T11:18:57.308Z,39.78
2017-01-10T11:19:57.336Z,39.68
2017-01-10T11:20:57.373Z,39.68
2017-01-10T11:21:56.997Z,39.78
2017-01-10T11:22:57.419Z,39.59
2017-01-10T11:23:57.444Z,39.68
2017-01-10T11:24:57.080Z,39.97
2017-01-10T11:25:57.501Z,39.59
2017-01-10T11:26:57.531Z,39.78
2017-01-10T11:27:57.551Z,39.78
2017-01-10T11:28:57.575Z,39.97
2017-01-10T11:29:57.608Z,39.97
2017-01-10T11:30:57.241Z,39.97
2017-01-10T11:31:57.666Z,39.97
2017-01-10T11:32:57.291Z,39.78
2017-01-10T11:33:57.715Z,39.97
2017-01-10T11:34:57.744Z,39.78
2017-01-10T11:35:57.377Z,40.07
2017-01-10T11:36:57.806Z,39.97
2017-01-10T11:37:57.431Z,39.87
2017-01-10T11:38:57.855Z,39.97
2017-01-10T11:39:57.883Z,39.97
2017-01-10T11:40:57.509Z,39.87
2017-01-10T11:41:57.926Z,39.87
2017-01-10T11:42:57.963Z,40.07
2017-01-10T11:43:57.980Z,39.87
2017-01-10T11:44:57.620Z,39.97
2017-01-10T11:45:57.645Z,39.97
2017-01-10T11:46:58.070Z,39.97
2017-01-10T11:47:58.094Z,39.97
2017-01-10T11:48:58.123Z,39.87
2017-01-10T11:49:57.752Z,39.87
2017-01-10T11:50:57.774Z,40.07
2017-01-10T11:51:58.209Z,39.76
2017-01-10T11:52:58.222Z,39.78
2017-01-10T11:53:58.254Z,39.97
2017-01-10T11:54:58.279Z,39.68
2017-01-10T11:55:58.313Z,39.87
2017-01-10T11:56:58.337Z,40.16
2017-01-10T11:57:58.365Z,39.97
2017-01-10T11:58:58.395Z,40.16
2017-01-10T11:59:58.023Z,39.95
2017-01-10T12:00:58.056Z,39.78
2017-01-10T12:01:58.079Z,40.07
2017-01-10T12:02:58.105Z,39.97
2017-01-10T12:03:58.526Z,39.97
2017-01-10T12:04:58.159Z,40.07
2017-01-10T12:05:58.575Z,40.07
2017-01-10T12:06:58.609Z,40.16
2017-01-10T12:07:58.233Z,39.78
2017-01-10T12:08:58.657Z,39.59
2017-01-10T12:09:58.287Z,39.97
2017-01-10T12:20:19.378Z,39.18
2017-01-10T12:21:18.332Z,39.37
2017-01-10T12:22:18.765Z,39.68
2017-01-10T12:23:34.490Z,39.28
2017-01-10T12:25:32.691Z,39.28
2017-01-10T12:26:17.819Z,39.18
2017-01-10T12:27:18.068Z,39.09
2017-01-10T12:28:18.272Z,39.28
2017-01-10T12:29:18.304Z,39.56
2017-01-10T12:30:17.926Z,39.09
2017-01-10T12:31:18.350Z,39.47
2017-01-10T12:32:17.984Z,39.2
2017-01-10T12:33:18.008Z,39.47
2017-01-10T12:34:18.429Z,39.29
2017-01-10T12:35:18.070Z,39.37
2017-01-10T12:36:18.486Z,39.2
2017-01-10T12:37:18.513Z,39.2
2017-01-10T12:38:18.545Z,39.47
2017-01-10T12:39:18.580Z,39.56
2017-01-10T12:40:18.205Z,39.56
2017-01-10T12:41:18.226Z,39.28
2017-01-10T12:42:18.254Z,39.37
2017-01-10T12:43:18.279Z,39.47
2017-01-10T12:44:18.704Z,39.18
2017-01-10T12:45:18.733Z,39.28
2017-01-10T12:46:18.354Z,39.56
2017-01-10T12:47:18.786Z,39.18
2017-01-10T12:48:18.812Z,39.66
2017-01-10T12:49:18.436Z,39.09
2017-01-10T12:50:18.870Z,39.47
2017-01-10T12:51:18.494Z,39.18
2017-01-10T12:52:18.915Z,38.99
2017-01-10T12:53:18.943Z,38.99
2017-01-10T12:54:18.984Z,39.09
2017-01-10T12:55:18.597Z,39.18
2017-01-10T12:56:18.630Z,39.37
2017-01-10T12:57:18.666Z,39.37
2017-01-10T12:58:18.684Z,39.28
2017-01-10T12:59:19.105Z,39.28
2017-01-10T13:00:18.733Z,39.37
2017-01-10T13:01:19.167Z,39.28
2017-01-10T13:02:19.204Z,39.28
2017-01-10T13:03:18.816Z,39.47
2017-01-10T13:04:19.236Z,39.47
2017-01-10T13:05:19.269Z,39.37
2017-01-10T13:06:19.292Z,39.56
2017-01-10T13:07:19.319Z,39.28
2017-01-10T13:08:19.352Z,39.28
2017-01-10T13:09:19.373Z,39.28
2017-01-10T13:10:19.401Z,39.47
2017-01-10T13:11:19.422Z,39.47
2017-01-10T13:12:19.459Z,39.37
2017-01-10T13:13:19.480Z,39.28
2017-01-10T13:14:19.112Z,39.37
2017-01-10T13:15:19.533Z,39.28
2017-01-10T13:16:19.562Z,39.37
2017-01-10T13:17:19.586Z,39.28
2017-01-10T13:18:19.219Z,39.28
2017-01-10T13:19:19.644Z,39.28
2017-01-10T13:20:19.268Z,39.28